createdAt,value
2022-07-29T00:02:26.694Z,17.35
2022-07-29T00:04:53.843Z,17.28
2022-07-29T00:07:21.276Z,17.15
2022-07-29T00:09:51.811Z,17.32
2022-07-29T00:12:26.420Z,17.11
2022-07-29T00:14:57.369Z,17.24
2022-07-29T00:17:25.561Z,17.06
2022-07-29T00:19:52.843Z,17.11
2022-07-29T00:22:20.732Z,16.98
2022-07-29T00:24:49.892Z,17.04
2022-07-29T00:27:16.823Z,16.84
2022-07-29T00:29:43.400Z,16.83
2022-07-29T00:32:10.000Z,16.73
2022-07-29T00:34:55.451Z,16.75
2022-07-29T00:37:22.160Z,16.68
2022-07-29T00:39:48.912Z,16.60
2022-07-29T00:42:15.591Z,16.54
2022-07-29T00:44:42.753Z,16.60
2022-07-29T00:47:11.619Z,16.52
2022-07-29T00:49:40.748Z,16.51
2022-07-29T00:52:09.599Z,16.46
2022-07-29T00:54:39.225Z,16.16
2022-07-29T00:57:12.082Z,16.35
2022-07-29T00:59:38.707Z,16.18
2022-07-29T01:02:05.460Z,16.22
2022-07-29T01:04:33.138Z,16.21
2022-07-29T01:07:02.438Z,15.88
2022-07-29T01:09:42.121Z,15.99
2022-07-29T01:12:27.948Z,16.02
2022-07-29T01:14:56.764Z,15.92
2022-07-29T01:17:54.005Z,15.90
2022-07-29T01:20:33.144Z,15.83
2022-07-29T01:23:30.579Z,15.78
2022-07-29T01:26:15.934Z,15.72
2022-07-29T01:28:59.658Z,15.67
2022-07-29T01:31:36.627Z,15.56
2022-07-29T01:34:11.294Z,15.49
2022-07-29T01:36:44.355Z,15.36
2022-07-29T01:39:18.033Z,15.31
2022-07-29T01:41:58.175Z,15.23
2022-07-29T01:44:35.469Z,15.28
2022-07-29T01:47:11.705Z,15.06
2022-07-29T01:49:44.013Z,14.99
2022-07-29T01:52:20.039Z,15.04
2022-07-29T01:54:53.138Z,14.94
2022-07-29T01:57:22.290Z,15.07
2022-07-29T01:59:50.929Z,15.06
2022-07-29T02:02:19.421Z,14.89
2022-07-29T02:04:49.511Z,14.82
2022-07-29T02:07:20.628Z,14.81
2022-07-29T02:09:50.319Z,14.76
2022-07-29T02:12:20.444Z,14.87
2022-07-29T02:14:51.406Z,14.69
2022-07-29T02:17:27.329Z,14.69
2022-07-29T02:19:58.498Z,14.60
2022-07-29T02:22:27.806Z,14.60
2022-07-29T02:24:56.375Z,14.66
2022-07-29T02:27:25.937Z,14.60
2022-07-29T02:29:54.206Z,14.55
2022-07-29T02:32:24.106Z,14.31
2022-07-29T02:34:53.215Z,14.31
2022-07-29T02:37:20.755Z,14.46
2022-07-29T02:39:49.934Z,14.32
2022-07-29T02:42:18.290Z,14.18
2022-07-29T02:44:45.493Z,14.39
2022-07-29T02:47:23.190Z,14.33
2022-07-29T02:49:56.338Z,14.31
2022-07-29T02:52:32.748Z,14.27
2022-07-29T02:55:34.255Z,14.22
2022-07-29T02:58:03.911Z,14.09
2022-07-29T03:00:35.644Z,14.16
2022-07-29T03:03:06.687Z,13.99
2022-07-29T03:05:34.014Z,14.10
2022-07-29T03:08:06.166Z,14.12
2022-07-29T03:10:34.347Z,14.04
2022-07-29T03:13:02.032Z,13.99
2022-07-29T03:15:29.554Z,13.88
2022-07-29T03:17:57.055Z,14.05
2022-07-29T03:20:24.232Z,14.13
2022-07-29T03:22:51.372Z,14.04
2022-07-29T03:25:20.397Z,14.09
2022-07-29T03:27:48.249Z,14.12
2022-07-29T03:30:21.941Z,14.13
2022-07-29T03:32:52.246Z,14.00
2022-07-29T03:35:22.062Z,14.11
2022-07-29T03:37:49.346Z,14.15
2022-07-29T03:40:23.238Z,14.08
2022-07-29T03:42:52.803Z,14.01
2022-07-29T03:45:20.818Z,14.13
2022-07-29T03:47:55.809Z,14.09
2022-07-29T03:50:25.399Z,14.00
2022-07-29T03:52:52.203Z,14.01
2022-07-29T03:55:18.864Z,14.06
2022-07-29T03:57:46.686Z,14.10
2022-07-29T04:00:14.465Z,14.18
2022-07-29T04:02:41.288Z,13.99
2022-07-29T04:05:14.004Z,13.95
2022-07-29T04:07:41.760Z,14.09
2022-07-29T04:10:09.637Z,14.22
2022-07-29T04:12:36.554Z,14.26
2022-07-29T04:15:05.379Z,14.18
2022-07-29T04:17:31.903Z,14.23
2022-07-29T04:19:58.605Z,14.22
2022-07-29T04:22:25.363Z,14.15
2022-07-29T04:24:54.053Z,14.10
2022-07-29T04:27:20.760Z,14.27
2022-07-29T04:29:55.977Z,14.06
2022-07-29T04:32:23.861Z,14.32
2022-07-29T04:34:50.546Z,14.23
2022-07-29T04:37:17.222Z,14.27
2022-07-29T04:39:43.885Z,14.38
2022-07-29T04:42:10.417Z,14.15
2022-07-29T04:44:37.204Z,14.42
2022-07-29T04:47:08.923Z,14.43
2022-07-29T04:49:35.705Z,14.31
2022-07-29T04:52:02.372Z,14.45
2022-07-29T04:54:29.136Z,14.45
2022-07-29T04:56:55.747Z,14.55
2022-07-29T04:59:22.342Z,14.59
2022-07-29T05:01:49.080Z,14.57
2022-07-29T05:04:16.221Z,14.59
2022-07-29T05:06:43.176Z,14.63
2022-07-29T05:09:09.819Z,14.81
2022-07-29T05:11:36.462Z,14.82
2022-07-29T05:14:03.166Z,14.83
2022-07-29T05:16:29.947Z,14.96
2022-07-29T05:18:56.536Z,15.01
2022-07-29T05:21:23.305Z,15.11
2022-07-29T05:23:50.071Z,15.22
2022-07-29T05:26:16.660Z,15.10
2022-07-29T05:28:43.176Z,15.29
2022-07-29T05:31:09.846Z,15.32
2022-07-29T05:33:37.201Z,15.52
2022-07-29T05:36:08.330Z,15.38
2022-07-29T05:38:36.690Z,15.58
2022-07-29T05:41:03.471Z,15.55
2022-07-29T05:43:30.196Z,15.55
2022-07-29T05:45:57.356Z,15.74
2022-07-29T05:48:24.317Z,15.72
2022-07-29T05:50:50.963Z,15.78
2022-07-29T05:53:18.989Z,15.91
2022-07-29T05:55:48.147Z,15.76
2022-07-29T05:58:14.723Z,16.09
2022-07-29T06:00:41.568Z,16.01
2022-07-29T06:03:08.095Z,16.14
2022-07-29T06:05:35.054Z,16.31
2022-07-29T06:08:02.048Z,16.44
2022-07-29T06:10:29.920Z,16.30
2022-07-29T06:12:56.533Z,16.59
2022-07-29T06:15:23.250Z,16.51
2022-07-29T06:17:59.230Z,16.64
2022-07-29T06:20:32.142Z,16.79
2022-07-29T06:22:59.606Z,16.73
2022-07-29T06:25:26.497Z,17.07
2022-07-29T06:27:53.482Z,17.05
2022-07-29T06:30:20.284Z,17.11
2022-07-29T06:32:47.342Z,17.32
2022-07-29T06:38:00.493Z,17.52
2022-07-29T06:40:46.147Z,17.50
2022-07-29T06:43:12.797Z,17.60
2022-07-29T06:45:42.308Z,17.85
2022-07-29T06:48:09.896Z,17.87
2022-07-29T06:50:36.891Z,17.91
2022-07-29T06:53:03.903Z,18.00
2022-07-29T06:55:30.620Z,18.04
2022-07-29T06:57:57.289Z,18.19
2022-07-29T07:00:24.348Z,18.21
2022-07-29T07:02:51.228Z,18.36
2022-07-29T07:05:17.942Z,18.43
2022-07-29T07:07:44.650Z,18.55
2022-07-29T07:10:11.258Z,18.67
2022-07-29T07:12:37.823Z,18.86
2022-07-29T07:15:04.823Z,19.05
2022-07-29T07:17:31.494Z,19.11
2022-07-29T07:19:58.391Z,19.23
2022-07-29T07:22:25.021Z,19.25
2022-07-29T07:24:51.539Z,19.50
2022-07-29T07:27:18.154Z,19.66
2022-07-29T07:29:44.809Z,20.05
2022-07-29T07:32:11.676Z,20.21
2022-07-29T07:34:39.157Z,20.46
2022-07-29T07:37:06.553Z,20.63
2022-07-29T07:39:33.284Z,20.73
2022-07-29T07:42:00.133Z,20.63
2022-07-29T07:44:27.083Z,20.85
2022-07-29T07:46:54.706Z,20.95
2022-07-29T07:49:21.623Z,20.99
2022-07-29T07:51:50.857Z,21.02
2022-07-29T07:54:20.512Z,21.13
2022-07-29T07:56:52.976Z,21.08
2022-07-29T07:59:20.049Z,21.10
2022-07-29T08:01:49.970Z,21.24
2022-07-29T08:04:27.749Z,21.51
2022-07-29T08:06:55.527Z,21.61
2022-07-29T08:09:29.384Z,21.68
2022-07-29T08:11:57.713Z,21.97
2022-07-29T08:14:24.357Z,21.91
2022-07-29T08:16:52.110Z,22.16
2022-07-29T08:19:18.940Z,22.34
2022-07-29T08:21:45.471Z,22.52
2022-07-29T08:24:30.870Z,22.68
2022-07-29T08:26:57.472Z,22.80
2022-07-29T08:29:24.134Z,22.96
2022-07-29T08:31:50.979Z,23.17
2022-07-29T08:34:17.851Z,23.45
2022-07-29T08:36:44.482Z,23.57
2022-07-29T08:39:16.788Z,23.64
2022-07-29T08:42:01.864Z,23.66
2022-07-29T08:44:31.092Z,23.90
2022-07-29T08:46:58.200Z,24.04
2022-07-29T08:49:25.069Z,24.10
2022-07-29T08:51:52.523Z,24.10
2022-07-29T08:54:19.589Z,24.50
2022-07-29T08:56:50.874Z,24.59
2022-07-29T08:59:21.835Z,24.84
2022-07-29T09:01:53.349Z,24.90
2022-07-29T09:04:22.208Z,24.93
2022-07-29T09:06:52.362Z,25.28
2022-07-29T09:09:19.027Z,25.57
2022-07-29T09:11:45.685Z,25.69
2022-07-29T09:14:14.340Z,25.94
2022-07-29T09:16:54.554Z,26.02
2022-07-29T09:19:26.654Z,26.28
2022-07-29T09:22:00.260Z,26.38
2022-07-29T09:24:43.859Z,26.70
2022-07-29T09:27:23.184Z,26.82
2022-07-29T09:30:01.099Z,27.06
2022-07-29T09:32:29.157Z,27.21
2022-07-29T09:35:19.931Z,27.18
2022-07-29T09:37:47.382Z,27.22
2022-07-29T09:40:19.316Z,27.29
2022-07-29T09:42:46.609Z,27.36
2022-07-29T09:45:26.514Z,27.52
2022-07-29T09:47:53.287Z,27.68
2022-07-29T09:50:24.831Z,27.76
2022-07-29T09:52:53.450Z,28.05
2022-07-29T09:55:20.595Z,28.25
2022-07-29T09:57:48.005Z,28.54
2022-07-29T10:00:19.878Z,28.72
2022-07-29T10:02:48.218Z,28.83
2022-07-29T10:05:22.345Z,29.00
2022-07-29T10:07:59.017Z,29.18
2022-07-29T10:10:30.727Z,29.49
2022-07-29T10:13:08.038Z,29.58
2022-07-29T10:15:42.269Z,29.69
2022-07-29T10:18:10.067Z,29.76
2022-07-29T10:20:37.289Z,30.00
2022-07-29T10:23:04.533Z,30.36
2022-07-29T10:25:31.582Z,30.52
2022-07-29T10:27:58.779Z,30.71
2022-07-29T10:30:26.711Z,30.97
2022-07-29T10:33:21.041Z,31.12
2022-07-29T10:36:06.052Z,31.39
2022-07-29T10:38:45.637Z,31.47
2022-07-29T10:41:31.946Z,31.46
2022-07-29T10:44:13.518Z,31.52
2022-07-29T10:46:44.828Z,31.68
2022-07-29T10:49:18.182Z,31.84
2022-07-29T10:52:01.756Z,31.85
2022-07-29T10:54:34.882Z,31.82
2022-07-29T10:57:16.695Z,31.92
2022-07-29T10:59:45.401Z,32.10
2022-07-29T11:02:42.034Z,32.28
2022-07-29T11:05:13.303Z,32.38
2022-07-29T11:10:49.928Z,32.49
2022-07-29T11:13:44.681Z,32.60
2022-07-29T11:16:16.067Z,32.59
2022-07-29T11:19:14.056Z,32.73
2022-07-29T11:21:55.087Z,32.66
2022-07-29T11:24:32.330Z,32.84
2022-07-29T11:27:21.232Z,32.83
2022-07-29T11:29:58.546Z,32.75
2022-07-29T11:32:29.300Z,32.98
2022-07-29T11:35:22.279Z,33.12
2022-07-29T11:38:22.672Z,33.23
2022-07-29T11:41:30.108Z,33.32
2022-07-29T11:44:00.587Z,33.35
2022-07-29T11:46:50.473Z,33.53
2022-07-29T11:49:32.091Z,33.60
2022-07-29T11:52:02.655Z,33.61
2022-07-29T11:54:57.537Z,33.62
2022-07-29T11:57:22.691Z,33.67
2022-07-29T11:59:49.611Z,33.88
2022-07-29T12:02:37.096Z,33.97
2022-07-29T12:07:03.437Z,33.87
2022-07-29T12:07:51.226Z,33.85
2022-07-29T12:10:19.826Z,33.91
2022-07-29T12:12:53.645Z,33.96
2022-07-29T12:15:45.609Z,33.91
2022-07-29T12:18:24.108Z,34.20
2022-07-29T12:20:59.439Z,34.32
2022-07-29T12:23:34.785Z,34.20
2022-07-29T12:26:07.582Z,34.08
2022-07-29T12:28:40.426Z,33.71
2022-07-29T12:31:43.427Z,32.88
2022-07-29T12:34:02.600Z,32.05
2022-07-29T12:36:29.326Z,31.38
2022-07-29T12:38:55.938Z,30.91
2022-07-29T12:41:23.406Z,31.23
2022-07-29T12:43:56.516Z,31.47
2022-07-29T12:46:23.302Z,31.66
2022-07-29T12:48:55.770Z,31.90
2022-07-29T12:51:40.183Z,31.87
2022-07-29T12:54:16.739Z,32.00
2022-07-29T12:56:45.716Z,31.96
2022-07-29T12:59:16.729Z,31.78
2022-07-29T13:01:43.986Z,31.67
2022-07-29T13:04:10.886Z,31.93
2022-07-29T13:06:49.642Z,32.04
2022-07-29T13:09:18.997Z,31.93
2022-07-29T13:11:48.772Z,31.61
2022-07-29T13:14:34.225Z,31.56
2022-07-29T13:17:06.221Z,31.59
2022-07-29T13:19:44.175Z,31.90
2022-07-29T13:22:13.071Z,32.09
2022-07-29T13:24:55.138Z,32.33
2022-07-29T13:27:24.549Z,32.53
2022-07-29T13:29:53.442Z,32.44
2022-07-29T13:32:28.404Z,32.25
2022-07-29T13:34:57.096Z,32.11
2022-07-29T13:37:24.198Z,31.97
2022-07-29T13:39:51.325Z,32.05
2022-07-29T13:42:20.704Z,32.13
2022-07-29T13:44:47.573Z,32.22
2022-07-29T13:47:14.172Z,32.22
2022-07-29T13:49:40.910Z,32.40
2022-07-29T13:52:08.462Z,32.42
2022-07-29T13:54:42.120Z,32.44
2022-07-29T13:57:09.595Z,32.19
2022-07-29T13:59:36.187Z,31.81
2022-07-29T14:02:03.205Z,31.37
2022-07-29T14:04:29.867Z,30.95
2022-07-29T14:06:56.437Z,30.60
2022-07-29T14:09:22.951Z,30.26
2022-07-29T14:11:51.399Z,30.12
2022-07-29T14:14:18.357Z,30.02
2022-07-29T14:16:47.827Z,29.77
2022-07-29T14:19:17.127Z,29.69
2022-07-29T14:21:43.744Z,29.46
2022-07-29T14:24:17.914Z,29.16
2022-07-29T14:26:48.203Z,29.10
2022-07-29T14:29:15.634Z,28.92
2022-07-29T14:31:44.063Z,28.80
2022-07-29T14:34:10.876Z,28.73
2022-07-29T14:36:37.462Z,28.50
2022-07-29T14:39:04.180Z,28.54
2022-07-29T14:41:30.964Z,28.48
2022-07-29T14:43:57.588Z,28.36
2022-07-29T14:46:24.329Z,28.27
2022-07-29T14:48:50.955Z,28.10
2022-07-29T14:51:18.411Z,28.15
2022-07-29T14:53:45.062Z,28.00
2022-07-29T14:56:35.591Z,28.03
2022-07-29T14:58:58.341Z,28.01
2022-07-29T15:01:25.835Z,27.86
2022-07-29T15:03:55.775Z,27.91
2022-07-29T15:06:26.176Z,28.50
2022-07-29T15:08:52.909Z,28.67
2022-07-29T15:11:19.575Z,28.77
2022-07-29T15:13:46.133Z,28.63
2022-07-29T15:16:12.816Z,28.56
2022-07-29T15:18:39.487Z,28.51
2022-07-29T15:21:07.966Z,28.29
2022-07-29T15:23:38.020Z,28.33
2022-07-29T15:26:05.429Z,28.29
2022-07-29T15:28:32.168Z,28.31
2022-07-29T15:30:59.351Z,28.13
2022-07-29T15:33:26.755Z,28.22
2022-07-29T15:35:53.469Z,28.24
2022-07-29T15:38:20.219Z,28.31
2022-07-29T15:40:55.266Z,28.41
2022-07-29T15:43:21.902Z,28.45
2022-07-29T15:46:07.214Z,28.43
2022-07-29T15:48:33.824Z,28.52
2022-07-29T15:51:01.044Z,28.80
2022-07-29T15:53:27.792Z,29.05
2022-07-29T15:55:54.400Z,29.30
2022-07-29T15:58:21.158Z,29.51
2022-07-29T16:00:47.953Z,29.91
2022-07-29T16:03:14.938Z,30.11
2022-07-29T16:05:41.932Z,30.56
2022-07-29T16:08:08.709Z,30.88
2022-07-29T16:10:35.521Z,31.13
2022-07-29T16:13:02.030Z,31.47
2022-07-29T16:15:28.673Z,31.72
2022-07-29T16:17:55.255Z,32.10
2022-07-29T16:20:22.414Z,32.43
2022-07-29T16:22:49.508Z,32.76
2022-07-29T16:25:16.136Z,32.51
2022-07-29T16:27:42.689Z,32.58
2022-07-29T16:30:10.024Z,32.62
2022-07-29T16:32:36.651Z,32.72
2022-07-29T16:35:05.160Z,32.69
2022-07-29T16:37:35.404Z,32.72
2022-07-29T16:40:03.486Z,32.41
2022-07-29T16:42:46.211Z,32.12
2022-07-29T16:45:13.527Z,31.79
2022-07-29T16:47:40.429Z,31.39
2022-07-29T16:50:07.727Z,30.99
2022-07-29T16:52:34.534Z,30.70
2022-07-29T16:55:01.035Z,30.58
2022-07-29T16:57:27.759Z,30.27
2022-07-29T16:59:54.443Z,30.10
2022-07-29T17:02:21.049Z,29.96
2022-07-29T17:04:47.727Z,29.76
2022-07-29T17:07:14.997Z,29.55
2022-07-29T17:09:41.848Z,29.38
2022-07-29T17:12:08.700Z,29.33
2022-07-29T17:14:35.383Z,29.21
2022-07-29T17:17:03.220Z,29.05
2022-07-29T17:19:34.027Z,28.94
2022-07-29T17:22:12.630Z,28.87
2022-07-29T17:24:42.860Z,28.79
2022-07-29T17:27:10.060Z,28.69
2022-07-29T17:29:37.369Z,28.36
2022-07-29T17:32:04.264Z,28.33
2022-07-29T17:34:35.508Z,28.41
2022-07-29T17:37:02.286Z,28.24
2022-07-29T17:39:28.984Z,28.22
2022-07-29T17:41:55.612Z,28.15
2022-07-29T17:44:22.310Z,27.86
2022-07-29T17:46:49.003Z,28.06
2022-07-29T17:49:15.601Z,27.88
2022-07-29T17:51:42.320Z,27.91
2022-07-29T17:54:08.903Z,27.88
2022-07-29T17:56:35.474Z,27.88
2022-07-29T17:59:06.457Z,27.73
2022-07-29T18:01:33.944Z,27.65
2022-07-29T18:04:00.821Z,27.79
2022-07-29T18:06:27.447Z,27.76
2022-07-29T18:08:55.315Z,27.72
2022-07-29T18:11:22.897Z,27.68
2022-07-29T18:13:49.562Z,27.62
2022-07-29T18:16:16.272Z,27.41
2022-07-29T18:18:44.459Z,27.34
2022-07-29T18:21:11.116Z,27.32
2022-07-29T18:23:37.666Z,27.39
2022-07-29T18:26:04.925Z,27.30
2022-07-29T18:28:32.770Z,27.20
2022-07-29T18:31:00.653Z,26.86
2022-07-29T18:33:27.803Z,26.71
2022-07-29T18:36:10.984Z,26.58
2022-07-29T18:38:41.979Z,26.45
2022-07-29T18:41:08.872Z,26.31
2022-07-29T18:43:35.849Z,26.09
2022-07-29T18:46:02.835Z,25.91
2022-07-29T18:48:29.425Z,25.74
2022-07-29T18:50:55.962Z,25.54
2022-07-29T18:53:22.579Z,25.48
2022-07-29T18:55:49.107Z,25.15
2022-07-29T18:58:15.616Z,25.19
2022-07-29T19:00:42.184Z,24.96
2022-07-29T19:03:09.627Z,24.78
2022-07-29T19:05:36.420Z,24.70
2022-07-29T19:08:03.269Z,24.73
2022-07-29T19:10:30.554Z,24.58
2022-07-29T19:12:58.025Z,24.44
2022-07-29T19:15:24.908Z,24.42
2022-07-29T19:17:51.571Z,24.35
2022-07-29T19:20:18.319Z,24.15
2022-07-29T19:22:44.972Z,24.12
2022-07-29T19:25:11.746Z,23.91
2022-07-29T19:27:38.327Z,24.01
2022-07-29T19:30:06.986Z,23.74
2022-07-29T19:32:33.654Z,23.86
2022-07-29T19:35:18.465Z,23.73
2022-07-29T19:37:45.063Z,23.57
2022-07-29T19:40:12.619Z,23.59
2022-07-29T19:42:39.156Z,23.48
2022-07-29T19:45:06.357Z,23.23
2022-07-29T19:47:32.938Z,23.10
2022-07-29T19:50:00.735Z,22.98
2022-07-29T19:52:28.093Z,22.92
2022-07-29T19:54:54.867Z,22.99
2022-07-29T19:57:21.546Z,22.78
2022-07-29T19:59:50.545Z,22.69
2022-07-29T20:02:17.228Z,22.66
2022-07-29T20:04:44.082Z,22.56
2022-07-29T20:07:11.392Z,22.46
2022-07-29T20:09:40.018Z,22.35
2022-07-29T20:12:10.100Z,22.28
2022-07-29T20:14:37.026Z,22.05
2022-07-29T20:17:04.744Z,21.99
2022-07-29T20:19:32.844Z,21.82
2022-07-29T20:21:59.834Z,21.91
2022-07-29T20:24:26.460Z,21.88
2022-07-29T20:26:53.098Z,21.90
2022-07-29T20:29:20.091Z,21.60
2022-07-29T20:31:53.485Z,21.78
2022-07-29T20:34:23.167Z,21.66
2022-07-29T20:36:49.935Z,21.65
2022-07-29T20:39:16.580Z,21.60
2022-07-29T20:41:43.370Z,21.64
2022-07-29T20:44:09.951Z,21.56
2022-07-29T20:46:36.840Z,21.55
2022-07-29T20:49:03.716Z,21.57
2022-07-29T20:51:30.308Z,21.38
2022-07-29T20:53:57.339Z,21.23
2022-07-29T20:56:24.144Z,21.45
2022-07-29T20:58:50.760Z,21.35
2022-07-29T21:01:17.460Z,21.33
2022-07-29T21:03:44.245Z,21.38
2022-07-29T21:06:11.558Z,21.33
2022-07-29T21:08:39.307Z,21.24
2022-07-29T21:11:05.972Z,21.17
2022-07-29T21:13:38.119Z,21.27
2022-07-29T21:16:17.977Z,21.08
2022-07-29T21:18:46.592Z,21.10
2022-07-29T21:21:16.222Z,21.10
2022-07-29T21:23:43.792Z,21.14
2022-07-29T21:26:12.945Z,21.13
2022-07-29T21:28:43.573Z,20.90
2022-07-29T21:31:12.649Z,21.07
2022-07-29T21:33:44.631Z,20.91
2022-07-29T21:36:46.003Z,20.89
2022-07-29T21:39:00.004Z,20.81
2022-07-29T21:41:26.705Z,20.65
2022-07-29T21:43:54.759Z,20.58
2022-07-29T21:46:24.989Z,20.70
2022-07-29T21:48:51.860Z,20.60
2022-07-29T21:51:18.406Z,20.64
2022-07-29T21:53:45.112Z,20.55
2022-07-29T21:56:14.990Z,20.43
2022-07-29T21:58:41.898Z,20.28
2022-07-29T22:01:08.626Z,20.23
2022-07-29T22:03:35.346Z,20.13
2022-07-29T22:06:02.360Z,20.16
2022-07-29T22:08:29.008Z,20.01
2022-07-29T22:10:55.842Z,20.06
2022-07-29T22:13:22.381Z,19.97
2022-07-29T22:15:49.096Z,19.87
2022-07-29T22:18:20.577Z,19.84
2022-07-29T22:20:48.595Z,19.76
2022-07-29T22:23:15.249Z,19.68
2022-07-29T22:25:41.951Z,19.57
2022-07-29T22:28:08.504Z,19.57
2022-07-29T22:30:35.140Z,19.37
2022-07-29T22:33:01.864Z,19.43
2022-07-29T22:35:28.631Z,19.39
2022-07-29T22:37:55.349Z,19.24
2022-07-29T22:40:22.020Z,19.15
2022-07-29T22:42:48.847Z,19.19
2022-07-29T22:45:15.479Z,19.28
2022-07-29T22:47:48.028Z,19.24
2022-07-29T22:50:15.817Z,19.14
2022-07-29T22:52:42.513Z,19.09
2022-07-29T22:55:09.350Z,19.03
2022-07-29T22:57:35.931Z,18.92
2022-07-29T23:00:02.706Z,19.04
2022-07-29T23:02:29.604Z,19.00
2022-07-29T23:04:56.713Z,18.78
2022-07-29T23:07:23.914Z,18.95
2022-07-29T23:09:50.541Z,18.82
2022-07-29T23:12:17.635Z,18.77
2022-07-29T23:14:44.375Z,18.84
2022-07-29T23:17:11.224Z,18.82
2022-07-29T23:19:37.914Z,18.57
2022-07-29T23:22:04.754Z,18.66
2022-07-29T23:24:31.302Z,18.51
2022-07-29T23:26:58.151Z,18.47
2022-07-29T23:29:25.009Z,18.61
2022-07-29T23:31:51.735Z,18.39
2022-07-29T23:34:18.398Z,18.44
2022-07-29T23:36:45.020Z,18.53
2022-07-29T23:39:12.305Z,18.48
2022-07-29T23:41:39.320Z,18.45
2022-07-29T23:44:06.076Z,18.28
2022-07-29T23:46:32.811Z,18.12
2022-07-29T23:48:59.536Z,18.19
2022-07-29T23:51:26.383Z,18.18
2022-07-29T23:53:54.346Z,18.22
2022-07-29T23:56:21.319Z,18.15
2022-07-29T23:58:47.955Z,18.26
